Nearby METAR Reports

 

KMTN - Baltimore/Martin, Maryland, USA
Distance from station: SSE 8mi, 13km
Updated: Sun, 26-Apr-2015 6:55am EDT
Overcast
Overcast
 Wind from WNW
Wind: WNW 3 mph , 6 km/h
Temperature: 46°F , 8°C
Dew Point: 36°F , 2°C
Humidity: 66%
Barometer: 29.70 inHg , 1005.8 hPa
Clouds: Overcast
Visibility: 10 miles , 16 km
Cloud details: Overcast 12000 ft
2015/04/26 10:55 KMTN 261055Z 30003KT 10SM OVC120 08/02 A2970
KDMH - Baltimore/Dwntwn, Maryland, USA
Distance from station: SW 12mi, 19km
Updated: Sun, 26-Apr-2015 6:54am EDT

 
Temperature: 46°F , 8°C
Dew Point: 34°F , 1°C
Humidity: 62%
Barometer: 29.69 inHg , 1005.4 hPa
2015/04/26 10:54 KDMH 261054Z AUTO 08/01 A2969 RMK AO1 SLP053 T00830006
 
KBWI - Balto/Wash Intl, Maryland, USA
Distance from station: SSW 20mi, 33km
Updated: Sun, 26-Apr-2015 6:54am EDT
Mostly cloudy
Mostly cloudy
 Wind from varies
Wind: varies 5 mph , 7 km/h
Temperature: 43°F , 6°C
Wind Chill: 40°F , 4°C
Dew Point: 37°F , 3°C
Humidity: 81%
Barometer: 29.68 inHg , 1005.1 hPa
Clouds: Mostly cloudy
Visibility: 10 miles , 16 km
Cloud details: Partly cloudy 8000 ft
Mostly cloudy 11000 ft
2015/04/26 10:54 KBWI 261054Z VRB04KT 10SM SCT080 BKN110 06/03 A2968 RMK AO2 SLP051 T00560033
KDMW - Carroll Cnty, Maryland, USA
Distance from station: WNW 30mi, 48km
Updated: Sun, 26-Apr-2015 7:10am EDT
Clear
Clear
 Wind from N
Wind: N 3 mph , 6 km/h
Temperature: 41°F , 5°C
Dew Point: 36°F , 2°C
Humidity: 81%
Barometer: 29.69 inHg , 1005.4 hPa
Clouds: Clear
Visibility: 7 miles , 11 km
2015/04/26 11:10 KDMW 261110Z AUTO 01003KT 7SM CLR 05/02 A2969 RMK AO2
 
KNAK - Annapolis/Naval, Maryland, USA
Distance from station: S 30mi, 48km
Updated: Sun, 26-Apr-2015 6:54am EDT
Overcast
Overcast
 Wind from WNW
Wind: WNW 6 mph , 9 km/h
Temperature: 45°F , 7°C
Wind Chill: 42°F , 6°C
Dew Point: 39°F , 4°C
Humidity: 81%
Barometer: 29.68 inHg , 1005.1 hPa
Clouds: Overcast
Visibility: 10 miles , 16 km
Cloud details: Overcast 11000 ft
2015/04/26 10:54 KNAK 261054Z AUTO 30005KT 10SM OVC110 07/04 A2968 RMK AO2 SLP051 T00670039
KW29 - Stevensville, Maryland, USA
Distance from station: SSE 31mi, 50km
Updated: Sun, 26-Apr-2015 7:08am EDT

 Wind from WNW
Wind: WNW 6 mph , 9 km/h
Barometer: 29.68 inHg , 1005.1 hPa
Visibility: 10 miles , 16 km
2015/04/26 11:08 KW29 261108Z AUTO 30005KT 10SM A2968 RMK AO1
 
KCGS - College Park, Maryland, USA
Distance from station: SW 38mi, 61km
Updated: Sun, 26-Apr-2015 7:05am EDT
Overcast
Overcast
 Wind from calm
Wind: Calm
Temperature: 43°F , 6°C
Dew Point: 41°F , 5°C
Humidity: 93%
Barometer: 29.68 inHg , 1005.1 hPa
Clouds: Overcast
Visibility: 10 miles , 16 km
Cloud details: Overcast 10000 ft
2015/04/26 11:05 KCGS 261105Z AUTO 00000KT 10SM OVC100 06/05 A2968 RMK AO1
KGAI - Gaithersburg, Maryland, USA
Distance from station: WSW 40mi, 65km
Updated: Sun, 26-Apr-2015 7:15am EDT
Mostly cloudy
Mostly cloudy
 Wind from NW
Wind: NW 3 mph , 6 km/h
Temperature: 39°F , 4°C
Dew Point: 37°F , 3°C
Humidity: 93%
Barometer: 29.73 inHg , 1006.8 hPa
Clouds: Mostly cloudy
Visibility: 10 miles , 16 km
Cloud details: Mostly cloudy 10000 ft
2015/04/26 11:15 KGAI 261115Z AUTO 32003KT 10SM BKN100 04/03 A2973 RMK AO1
 
KTHV - York, Pennsylvania, USA
Distance from station: NNW 40mi, 65km
Updated: Sun, 26-Apr-2015 5:53am EDT
NOT Current
Clear
Clear
 Wind from calm
Wind: Calm
Temperature: 39°F , 4°C
Dew Point: 34°F , 1°C
Humidity: 81%
Barometer: 29.69 inHg , 1005.4 hPa
Clouds: Clear
Visibility: 10 miles , 16 km
2015/04/26 09:53 KTHV 260953Z AUTO 00000KT 10SM CLR 04/01 A2969 RMK AO2 SLP056 T00440011
KFDK - Frederick, Maryland, USA
Distance from station: W 47mi, 75km
Updated: Sun, 26-Apr-2015 6:45am EDT
Mostly cloudy
Mostly cloudy
 Wind from calm
Wind: Calm
Temperature: 43°F , 6°C
Dew Point: 37°F , 3°C
Humidity: 81%
Barometer: 29.73 inHg , 1006.8 hPa
Clouds: Mostly cloudy
Visibility: 10 miles , 16 km
Cloud details: Mostly cloudy 12000 ft
2015/04/26 10:45 KFDK 261045Z 00000KT 10SM BKN120 06/03 A2973
 
KESN - Easton/Newnam, Maryland, USA
Distance from station: SSE 48mi, 78km
Updated: Sun, 26-Apr-2015 6:50am EDT
Partly cloudy
Partly cloudy
 Wind from calm
Wind: Calm
Temperature: 45°F , 7°C
Dew Point: 45°F , 7°C
Humidity: 100%
Barometer: 29.71 inHg , 1006.1 hPa
Clouds: Partly cloudy
Visibility: 10 miles , 16 km
Cloud details: Partly cloudy 8000 ft
2015/04/26 10:50 KESN 261050Z 00000KT 10SM SCT080 07/07 A2971
KDCA - Washington/Natl, Washington D.c., USA
Distance from station: SW 49mi, 79km
Updated: Sun, 26-Apr-2015 6:52am EDT
Overcast
Overcast
 Wind from NW
Wind: NW 6 mph , 9 km/h
Temperature: 46°F , 8°C
Wind Chill: 43°F , 6°C
Dew Point: 39°F , 4°C
Humidity: 76%
Barometer: 29.70 inHg , 1005.8 hPa
Clouds: Overcast
Visibility: 10 miles , 16 km
Cloud details: Few Clouds 8000 ft
Overcast 10000 ft
2015/04/26 10:52 KDCA 261052Z 32005KT 10SM FEW080 OVC100 08/04 A2970 RMK AO2 SLP055 BINOVC T00780044
 
KLNS - Lancaster, Pennsylvania, USA
Distance from station: N 49mi, 79km
Updated: Sun, 26-Apr-2015 6:53am EDT
Clear
Clear
 Wind from calm
Wind: Calm
Temperature: 41°F , 5°C
Dew Point: 28°F , -2°C
Humidity: 61%
Barometer: 29.69 inHg , 1005.4 hPa
Clouds: Clear
Visibility: 10 miles , 16 km
2015/04/26 10:53 KLNS 261053Z 00000KT 10SM CLR 05/M02 A2969 RMK AO2 SLP055 T00501017
KILG - Wilmington, Delaware, USA
Distance from station: ENE 50mi, 81km
Updated: Sun, 26-Apr-2015 6:51am EDT
Clear
Clear
 Wind from N
Wind: N 7 mph , 11 km/h
Temperature: 45°F , 7°C
Wind Chill: 41°F , 5°C
Dew Point: 30°F , -1°C
Humidity: 57%
Barometer: 29.68 inHg , 1005.1 hPa
Clouds: Clear
Visibility: 10 miles , 16 km
2015/04/26 10:51 KILG 261051Z 35006KT 10SM CLR 07/M01 A2968 RMK AO2 SLP051 T00721006